sensor_id;sensor_type;location;lat;lon;timestamp;pressure;altitude;pressure_sealevel;temperature;humidity
70971;BME280;58632;51.718;19.446;2023-02-22T00:02:10;99483.95;;;1.86;100.00
70971;BME280;58632;51.718;19.446;2023-02-22T00:04:38;99483.19;;;1.84;100.00
70971;BME280;58632;51.718;19.446;2023-02-22T00:07:04;99482.92;;;1.78;100.00
70971;BME280;58632;51.718;19.446;2023-02-22T00:09:30;99483.69;;;1.72;100.00
70971;BME280;58632;51.718;19.446;2023-02-22T00:11:55;99485.10;;;1.64;100.00
70971;BME280;58632;51.718;19.446;2023-02-22T00:14:23;99483.95;;;1.58;100.00
70971;BME280;58632;51.718;19.446;2023-02-22T00:16:51;99481.73;;;1.51;100.00
70971;BME280;58632;51.718;19.446;2023-02-22T00:19:17;99485.41;;;1.47;100.00
70971;BME280;58632;51.718;19.446;2023-02-22T00:21:43;99490.59;;;1.45;100.00
70971;BME280;58632;51.718;19.446;2023-02-22T00:24:09;99494.80;;;1.46;100.00
70971;BME280;58632;51.718;19.446;2023-02-22T00:26:48;99497.71;;;1.50;100.00
70971;BME280;58632;51.718;19.446;2023-02-22T00:29:14;99496.53;;;1.56;100.00
70971;BME280;58632;51.718;19.446;2023-02-22T00:31:39;99498.25;;;1.60;100.00
70971;BME280;58632;51.718;19.446;2023-02-22T00:34:05;99495.45;;;1.66;100.00
70971;BME280;58632;51.718;19.446;2023-02-22T00:36:31;99496.90;;;1.71;100.00
70971;BME280;58632;51.718;19.446;2023-02-22T00:38:56;99497.72;;;1.74;100.00
70971;BME280;58632;51.718;19.446;2023-02-22T00:41:22;99500.52;;;1.75;100.00
70971;BME280;58632;51.718;19.446;2023-02-22T00:43:48;99502.30;;;1.74;100.00
70971;BME280;58632;51.718;19.446;2023-02-22T00:46:13;99504.96;;;1.73;100.00
70971;BME280;58632;51.718;19.446;2023-02-22T00:48:39;99507.27;;;1.70;100.00
70971;BME280;58632;51.718;19.446;2023-02-22T00:51:04;99508.52;;;1.66;100.00
70971;BME280;58632;51.718;19.446;2023-02-22T00:53:30;99511.27;;;1.61;100.00
70971;BME280;58632;51.718;19.446;2023-02-22T00:55:55;99515.75;;;1.56;100.00
70971;BME280;58632;51.718;19.446;2023-02-22T00:58:21;99516.56;;;1.52;100.00
70971;BME280;58632;51.718;19.446;2023-02-22T01:00:48;99521.95;;;1.48;100.00
70971;BME280;58632;51.718;19.446;2023-02-22T01:03:15;99521.86;;;1.49;100.00
70971;BME280;58632;51.718;19.446;2023-02-22T01:05:42;99522.60;;;1.49;100.00
70971;BME280;58632;51.718;19.446;2023-02-22T01:08:08;99534.85;;;1.49;100.00
70971;BME280;58632;51.718;19.446;2023-02-22T01:10:34;99530.58;;;1.48;100.00
70971;BME280;58632;51.718;19.446;2023-02-22T01:13:00;99531.13;;;1.48;100.00
70971;BME280;58632;51.718;19.446;2023-02-22T01:15:29;99534.58;;;1.46;100.00
70971;BME280;58632;51.718;19.446;2023-02-22T01:17:55;99536.73;;;1.46;100.00
70971;BME280;58632;51.718;19.446;2023-02-22T01:20:22;99541.21;;;1.49;100.00
70971;BME280;58632;51.718;19.446;2023-02-22T01:22:50;99541.48;;;1.53;100.00
70971;BME280;58632;51.718;19.446;2023-02-22T01:25:20;99544.25;;;1.57;100.00
70971;BME280;58632;51.718;19.446;2023-02-22T01:27:46;99541.66;;;1.58;100.00
70971;BME280;58632;51.718;19.446;2023-02-22T01:30:12;99542.36;;;1.61;100.00
70971;BME280;58632;51.718;19.446;2023-02-22T01:32:38;99542.09;;;1.66;100.00
70971;BME280;58632;51.718;19.446;2023-02-22T01:35:06;99544.04;;;1.70;100.00
70971;BME280;58632;51.718;19.446;2023-02-22T01:37:33;99543.57;;;1.76;100.00
70971;BME280;58632;51.718;19.446;2023-02-22T01:39:59;99541.08;;;1.81;100.00
70971;BME280;58632;51.718;19.446;2023-02-22T01:42:24;99541.94;;;1.87;100.00
70971;BME280;58632;51.718;19.446;2023-02-22T01:47:35;99545.67;;;2.00;100.00
70971;BME280;58632;51.718;19.446;2023-02-22T01:50:00;99541.98;;;2.04;100.00
70971;BME280;58632;51.718;19.446;2023-02-22T01:52:26;99536.42;;;2.07;100.00
70971;BME280;58632;51.718;19.446;2023-02-22T01:54:54;99541.39;;;2.09;100.00
70971;BME280;58632;51.718;19.446;2023-02-22T01:57:24;99536.47;;;2.10;100.00
70971;BME280;58632;51.718;19.446;2023-02-22T01:59:52;99536.91;;;2.09;100.00
70971;BME280;58632;51.718;19.446;2023-02-22T02:02:19;99535.84;;;2.08;100.00
70971;BME280;58632;51.718;19.446;2023-02-22T02:04:46;99536.38;;;2.06;100.00
70971;BME280;58632;51.718;19.446;2023-02-22T02:07:12;99541.02;;;2.05;100.00
70971;BME280;58632;51.718;19.446;2023-02-22T02:09:43;99537.34;;;2.04;100.00
70971;BME280;58632;51.718;19.446;2023-02-22T02:12:12;99543.89;;;2.04;100.00
70971;BME280;58632;51.718;19.446;2023-02-22T02:14:40;99543.02;;;2.03;100.00
70971;BME280;58632;51.718;19.446;2023-02-22T02:17:09;99546.54;;;2.00;100.00
70971;BME280;58632;51.718;19.446;2023-02-22T02:22:22;99549.93;;;1.94;100.00
70971;BME280;58632;51.718;19.446;2023-02-22T02:25:16;99548.41;;;1.89;100.00
70971;BME280;58632;51.718;19.446;2023-02-22T02:35:25;99556.30;;;1.67;100.00
70971;BME280;58632;51.718;19.446;2023-02-22T02:37:57;99563.70;;;1.66;100.00
70971;BME280;58632;51.718;19.446;2023-02-22T02:40:29;99561.27;;;1.67;100.00
70971;BME280;58632;51.718;19.446;2023-02-22T02:45:27;99559.54;;;1.75;100.00
70971;BME280;58632;51.718;19.446;2023-02-22T02:47:55;99565.16;;;1.81;100.00
70971;BME280;58632;51.718;19.446;2023-02-22T02:51:05;99564.59;;;1.86;100.00
70971;BME280;58632;51.718;19.446;2023-02-22T02:53:12;99567.71;;;1.88;100.00
70971;BME280;58632;51.718;19.446;2023-02-22T02:55:38;99570.66;;;1.89;100.00
70971;BME280;58632;51.718;19.446;2023-02-22T02:58:04;99572.35;;;1.90;100.00
70971;BME280;58632;51.718;19.446;2023-02-22T03:00:32;99572.83;;;1.94;100.00
70971;BME280;58632;51.718;19.446;2023-02-22T03:05:56;99572.08;;;1.98;100.00
70971;BME280;58632;51.718;19.446;2023-02-22T03:08:33;99566.62;;;2.02;100.00
70971;BME280;58632;51.718;19.446;2023-02-22T03:11:14;99566.46;;;2.04;100.00
70971;BME280;58632;51.718;19.446;2023-02-22T03:13:52;99566.58;;;2.04;100.00
70971;BME280;58632;51.718;19.446;2023-02-22T03:18:57;99564.08;;;2.03;100.00
70971;BME280;58632;51.718;19.446;2023-02-22T03:27:02;99564.56;;;1.99;100.00
70971;BME280;58632;51.718;19.446;2023-02-22T03:29:33;99565.60;;;1.96;100.00
70971;BME280;58632;51.718;19.446;2023-02-22T03:32:02;99569.70;;;1.93;100.00
70971;BME280;58632;51.718;19.446;2023-02-22T03:34:31;99569.33;;;1.92;100.00
70971;BME280;58632;51.718;19.446;2023-02-22T03:36:59;99574.13;;;1.90;100.00
70971;BME280;58632;51.718;19.446;2023-02-22T03:39:27;99579.15;;;1.91;100.00
70971;BME280;58632;51.718;19.446;2023-02-22T03:41:57;99580.45;;;1.93;100.00
70971;BME280;58632;51.718;19.446;2023-02-22T03:44:24;99579.10;;;1.98;100.00
70971;BME280;58632;51.718;19.446;2023-02-22T03:46:52;99579.16;;;2.03;100.00
70971;BME280;58632;51.718;19.446;2023-02-22T03:49:25;99582.17;;;2.08;100.00
70971;BME280;58632;51.718;19.446;2023-02-22T03:51:54;99582.40;;;2.13;100.00
70971;BME280;58632;51.718;19.446;2023-02-22T03:54:19;99583.89;;;2.22;100.00
70971;BME280;58632;51.718;19.446;2023-02-22T03:56:55;99591.35;;;2.32;100.00
70971;BME280;58632;51.718;19.446;2023-02-22T03:59:21;99593.50;;;2.40;100.00
70971;BME280;58632;51.718;19.446;2023-02-22T04:01:52;99590.84;;;2.47;100.00
70971;BME280;58632;51.718;19.446;2023-02-22T04:04:17;99594.95;;;2.52;100.00
70971;BME280;58632;51.718;19.446;2023-02-22T04:06:43;99596.34;;;2.53;100.00
70971;BME280;58632;51.718;19.446;2023-02-22T04:09:09;99594.40;;;2.55;100.00
70971;BME280;58632;51.718;19.446;2023-02-22T04:11:34;99597.41;;;2.57;100.00
70971;BME280;58632;51.718;19.446;2023-02-22T04:13:59;99597.08;;;2.57;100.00
70971;BME280;58632;51.718;19.446;2023-02-22T04:16:25;99600.45;;;2.52;100.00
70971;BME280;58632;51.718;19.446;2023-02-22T04:18:50;99605.77;;;2.48;100.00
70971;BME280;58632;51.718;19.446;2023-02-22T04:21:16;99602.84;;;2.43;100.00
70971;BME280;58632;51.718;19.446;2023-02-22T04:23:41;99605.83;;;2.42;100.00
70971;BME280;58632;51.718;19.446;2023-02-22T04:26:07;99603.51;;;2.40;100.00
70971;BME280;58632;51.718;19.446;2023-02-22T04:28:33;99608.31;;;2.37;100.00
70971;BME280;58632;51.718;19.446;2023-02-22T04:30:58;99609.93;;;2.33;100.00
70971;BME280;58632;51.718;19.446;2023-02-22T04:33:24;99611.52;;;2.28;100.00
70971;BME280;58632;51.718;19.446;2023-02-22T04:35:49;99607.58;;;2.21;100.00
70971;BME280;58632;51.718;19.446;2023-02-22T04:38:15;99610.38;;;2.21;100.00
70971;BME280;58632;51.718;19.446;2023-02-22T04:40:41;99612.65;;;2.17;100.00
70971;BME280;58632;51.718;19.446;2023-02-22T04:43:07;99617.63;;;2.14;100.00
70971;BME280;58632;51.718;19.446;2023-02-22T04:45:32;99618.81;;;2.13;100.00
70971;BME280;58632;51.718;19.446;2023-02-22T04:47:58;99619.45;;;2.14;100.00
70971;BME280;58632;51.718;19.446;2023-02-22T04:50:23;99619.29;;;2.15;100.00
70971;BME280;58632;51.718;19.446;2023-02-22T04:52:49;99615.79;;;2.19;100.00
70971;BME280;58632;51.718;19.446;2023-02-22T04:55:15;99619.89;;;2.21;100.00
70971;BME280;58632;51.718;19.446;2023-02-22T04:57:41;99620.53;;;2.23;100.00
70971;BME280;58632;51.718;19.446;2023-02-22T05:00:06;99621.06;;;2.30;100.00
70971;BME280;58632;51.718;19.446;2023-02-22T05:02:34;99623.34;;;2.36;100.00
70971;BME280;58632;51.718;19.446;2023-02-22T05:05:03;99624.09;;;2.41;100.00
70971;BME280;58632;51.718;19.446;2023-02-22T05:07:28;99622.85;;;2.45;100.00
70971;BME280;58632;51.718;19.446;2023-02-22T05:09:54;99624.31;;;2.46;100.00
70971;BME280;58632;51.718;19.446;2023-02-22T05:12:20;99620.73;;;2.43;100.00
70971;BME280;58632;51.718;19.446;2023-02-22T05:14:45;99618.58;;;2.36;100.00
70971;BME280;58632;51.718;19.446;2023-02-22T05:17:11;99617.46;;;2.26;100.00
70971;BME280;58632;51.718;19.446;2023-02-22T05:19:37;99616.97;;;2.15;100.00
70971;BME280;58632;51.718;19.446;2023-02-22T05:22:02;99619.50;;;2.03;100.00
70971;BME280;58632;51.718;19.446;2023-02-22T05:24:30;99620.90;;;1.90;100.00
70971;BME280;58632;51.718;19.446;2023-02-22T05:26:55;99623.52;;;1.76;100.00
70971;BME280;58632;51.718;19.446;2023-02-22T05:29:21;99625.62;;;1.63;100.00
70971;BME280;58632;51.718;19.446;2023-02-22T05:31:47;99631.48;;;1.52;100.00
70971;BME280;58632;51.718;19.446;2023-02-22T05:34:13;99635.05;;;1.40;100.00
70971;BME280;58632;51.718;19.446;2023-02-22T05:36:38;99639.20;;;1.26;100.00
70971;BME280;58632;51.718;19.446;2023-02-22T05:39:04;99638.17;;;1.10;100.00
70971;BME280;58632;51.718;19.446;2023-02-22T05:41:29;99645.38;;;0.97;100.00
70971;BME280;58632;51.718;19.446;2023-02-22T05:43:55;99655.02;;;0.84;100.00
70971;BME280;58632;51.718;19.446;2023-02-22T05:46:21;99658.36;;;0.77;100.00
70971;BME280;58632;51.718;19.446;2023-02-22T05:48:46;99660.81;;;0.70;100.00
70971;BME280;58632;51.718;19.446;2023-02-22T05:51:12;99660.08;;;0.66;100.00
70971;BME280;58632;51.718;19.446;2023-02-22T05:53:37;99658.64;;;0.59;100.00
70971;BME280;58632;51.718;19.446;2023-02-22T05:56:03;99664.13;;;0.57;100.00
70971;BME280;58632;51.718;19.446;2023-02-22T05:58:29;99668.52;;;0.62;100.00
70971;BME280;58632;51.718;19.446;2023-02-22T06:00:55;99668.71;;;0.67;100.00
70971;BME280;58632;51.718;19.446;2023-02-22T06:03:20;99670.82;;;0.75;100.00
70971;BME280;58632;51.718;19.446;2023-02-22T06:05:46;99674.70;;;0.86;100.00
70971;BME280;58632;51.718;19.446;2023-02-22T06:08:12;99674.25;;;0.99;100.00
70971;BME280;58632;51.718;19.446;2023-02-22T06:10:37;99681.25;;;1.08;100.00
70971;BME280;58632;51.718;19.446;2023-02-22T06:13:03;99679.30;;;1.16;100.00
70971;BME280;58632;51.718;19.446;2023-02-22T06:15:29;99681.77;;;1.25;100.00
70971;BME280;58632;51.718;19.446;2023-02-22T06:17:55;99685.74;;;1.32;100.00
70971;BME280;58632;51.718;19.446;2023-02-22T06:20:21;99687.92;;;1.38;100.00
70971;BME280;58632;51.718;19.446;2023-02-22T06:22:51;99690.21;;;1.45;100.00
70971;BME280;58632;51.718;19.446;2023-02-22T06:25:18;99691.91;;;1.51;100.00
70971;BME280;58632;51.718;19.446;2023-02-22T06:27:44;99695.23;;;1.57;100.00
70971;BME280;58632;51.718;19.446;2023-02-22T06:30:10;99695.13;;;1.60;100.00
70971;BME280;58632;51.718;19.446;2023-02-22T06:32:36;99696.13;;;1.66;100.00
70971;BME280;58632;51.718;19.446;2023-02-22T06:35:02;99702.57;;;1.72;100.00
70971;BME280;58632;51.718;19.446;2023-02-22T06:37:28;99701.84;;;1.83;100.00
70971;BME280;58632;51.718;19.446;2023-02-22T06:39:53;99705.11;;;1.95;100.00
70971;BME280;58632;51.718;19.446;2023-02-22T06:42:19;99709.85;;;2.09;100.00
70971;BME280;58632;51.718;19.446;2023-02-22T06:44:45;99707.86;;;2.26;100.00
70971;BME280;58632;51.718;19.446;2023-02-22T06:47:10;99710.20;;;2.41;100.00
70971;BME280;58632;51.718;19.446;2023-02-22T06:49:36;99710.91;;;2.54;100.00
70971;BME280;58632;51.718;19.446;2023-02-22T06:52:05;99718.58;;;2.64;100.00
70971;BME280;58632;51.718;19.446;2023-02-22T06:54:30;99723.77;;;2.72;100.00
70971;BME280;58632;51.718;19.446;2023-02-22T06:56:56;99719.75;;;2.80;100.00
70971;BME280;58632;51.718;19.446;2023-02-22T06:59:22;99720.23;;;2.93;100.00
70971;BME280;58632;51.718;19.446;2023-02-22T07:01:47;99724.12;;;2.98;100.00
70971;BME280;58632;51.718;19.446;2023-02-22T07:04:13;99722.30;;;3.12;100.00
70971;BME280;58632;51.718;19.446;2023-02-22T07:06:44;99721.52;;;3.25;100.00
70971;BME280;58632;51.718;19.446;2023-02-22T07:09:09;99727.21;;;3.40;100.00
70971;BME280;58632;51.718;19.446;2023-02-22T07:11:37;99728.27;;;3.63;100.00
70971;BME280;58632;51.718;19.446;2023-02-22T07:14:03;99730.52;;;3.88;100.00
70971;BME280;58632;51.718;19.446;2023-02-22T07:16:28;99734.88;;;4.06;100.00
70971;BME280;58632;51.718;19.446;2023-02-22T07:18:54;99737.07;;;4.20;100.00
70971;BME280;58632;51.718;19.446;2023-02-22T07:21:19;99737.92;;;4.30;100.00
70971;BME280;58632;51.718;19.446;2023-02-22T07:23:52;99738.96;;;4.39;100.00
70971;BME280;58632;51.718;19.446;2023-02-22T07:26:18;99744.16;;;4.45;100.00
70971;BME280;58632;51.718;19.446;2023-02-22T07:28:44;99743.87;;;4.50;100.00
70971;BME280;58632;51.718;19.446;2023-02-22T07:31:09;99744.34;;;4.51;100.00
70971;BME280;58632;51.718;19.446;2023-02-22T07:33:35;99747.41;;;4.55;100.00
70971;BME280;58632;51.718;19.446;2023-02-22T07:36:01;99744.17;;;4.59;100.00
70971;BME280;58632;51.718;19.446;2023-02-22T07:38:27;99746.87;;;4.61;100.00
70971;BME280;58632;51.718;19.446;2023-02-22T07:40:54;99748.31;;;4.64;100.00
70971;BME280;58632;51.718;19.446;2023-02-22T07:43:28;99747.92;;;4.73;100.00
70971;BME280;58632;51.718;19.446;2023-02-22T07:45:55;99743.83;;;4.88;100.00
70971;BME280;58632;51.718;19.446;2023-02-22T07:48:22;99744.77;;;5.03;100.00
70971;BME280;58632;51.718;19.446;2023-02-22T07:50:49;99745.67;;;5.15;100.00
70971;BME280;58632;51.718;19.446;2023-02-22T07:53:22;99745.66;;;5.18;100.00
70971;BME280;58632;51.718;19.446;2023-02-22T07:55:47;99741.81;;;5.18;100.00
70971;BME280;58632;51.718;19.446;2023-02-22T07:58:17;99742.19;;;5.17;100.00
70971;BME280;58632;51.718;19.446;2023-02-22T08:00:43;99743.32;;;5.14;100.00
70971;BME280;58632;51.718;19.446;2023-02-22T08:03:11;99746.42;;;5.06;100.00
70971;BME280;58632;51.718;19.446;2023-02-22T08:05:38;99746.27;;;4.99;100.00
70971;BME280;58632;51.718;19.446;2023-02-22T08:08:05;99747.61;;;4.96;100.00
70971;BME280;58632;51.718;19.446;2023-02-22T08:10:31;99750.64;;;4.96;100.00
70971;BME280;58632;51.718;19.446;2023-02-22T08:12:57;99750.27;;;5.01;100.00
70971;BME280;58632;51.718;19.446;2023-02-22T08:15:24;99752.48;;;5.04;100.00
70971;BME280;58632;51.718;19.446;2023-02-22T08:17:50;99752.83;;;5.07;100.00
70971;BME280;58632;51.718;19.446;2023-02-22T08:20:15;99752.48;;;5.15;100.00
70971;BME280;58632;51.718;19.446;2023-02-22T08:22:41;99748.35;;;5.26;100.00
70971;BME280;58632;51.718;19.446;2023-02-22T08:25:07;99753.02;;;5.42;100.00
70971;BME280;58632;51.718;19.446;2023-02-22T08:27:33;99752.02;;;5.62;100.00
70971;BME280;58632;51.718;19.446;2023-02-22T08:29:59;99756.32;;;5.89;100.00
70971;BME280;58632;51.718;19.446;2023-02-22T08:32:24;99754.35;;;6.05;100.00
70971;BME280;58632;51.718;19.446;2023-02-22T08:34:50;99751.80;;;6.16;100.00
70971;BME280;58632;51.718;19.446;2023-02-22T08:37:16;99749.22;;;6.22;100.00
70971;BME280;58632;51.718;19.446;2023-02-22T08:39:42;99754.77;;;6.40;100.00
70971;BME280;58632;51.718;19.446;2023-02-22T08:42:08;99757.99;;;6.57;100.00
70971;BME280;58632;51.718;19.446;2023-02-22T08:44:34;99757.09;;;6.72;100.00
70971;BME280;58632;51.718;19.446;2023-02-22T08:47:00;99757.27;;;6.90;100.00
70971;BME280;58632;51.718;19.446;2023-02-22T08:49:26;99758.89;;;7.09;100.00
70971;BME280;58632;51.718;19.446;2023-02-22T08:51:51;99756.98;;;7.42;100.00
70971;BME280;58632;51.718;19.446;2023-02-22T08:54:17;99756.54;;;7.68;100.00
70971;BME280;58632;51.718;19.446;2023-02-22T08:56:43;99758.05;;;7.79;100.00
70971;BME280;58632;51.718;19.446;2023-02-22T08:59:09;99759.83;;;7.80;100.00
70971;BME280;58632;51.718;19.446;2023-02-22T09:01:34;99762.48;;;7.76;100.00
70971;BME280;58632;51.718;19.446;2023-02-22T09:04:00;99764.15;;;7.69;100.00
70971;BME280;58632;51.718;19.446;2023-02-22T09:06:26;99764.45;;;7.53;100.00
70971;BME280;58632;51.718;19.446;2023-02-22T09:08:52;99767.76;;;7.43;100.00
70971;BME280;58632;51.718;19.446;2023-02-22T09:11:17;99767.17;;;7.33;100.00
70971;BME280;58632;51.718;19.446;2023-02-22T09:13:43;99766.25;;;7.36;100.00
70971;BME280;58632;51.718;19.446;2023-02-22T09:16:09;99770.69;;;7.37;100.00
70971;BME280;58632;51.718;19.446;2023-02-22T09:18:34;99768.06;;;7.32;100.00
70971;BME280;58632;51.718;19.446;2023-02-22T09:21:01;99770.11;;;7.18;100.00
70971;BME280;58632;51.718;19.446;2023-02-22T09:23:27;99769.96;;;7.02;100.00
70971;BME280;58632;51.718;19.446;2023-02-22T09:25:52;99767.87;;;6.88;100.00
70971;BME280;58632;51.718;19.446;2023-02-22T09:28:18;99767.02;;;6.76;100.00
70971;BME280;58632;51.718;19.446;2023-02-22T09:30:44;99769.58;;;6.72;100.00
70971;BME280;58632;51.718;19.446;2023-02-22T09:33:12;99768.52;;;6.73;100.00
70971;BME280;58632;51.718;19.446;2023-02-22T09:35:38;99763.41;;;6.79;100.00
70971;BME280;58632;51.718;19.446;2023-02-22T09:38:06;99764.60;;;6.90;100.00
70971;BME280;58632;51.718;19.446;2023-02-22T09:40:34;99769.49;;;6.94;100.00
70971;BME280;58632;51.718;19.446;2023-02-22T09:45:35;99767.86;;;7.19;100.00
70971;BME280;58632;51.718;19.446;2023-02-22T09:48:05;99770.02;;;7.35;100.00
70971;BME280;58632;51.718;19.446;2023-02-22T09:50:36;99770.08;;;7.50;100.00
70971;BME280;58632;51.718;19.446;2023-02-22T09:53:04;99773.07;;;7.56;100.00
70971;BME280;58632;51.718;19.446;2023-02-22T09:55:32;99772.90;;;7.53;100.00
70971;BME280;58632;51.718;19.446;2023-02-22T09:58:00;99776.04;;;7.49;100.00
70971;BME280;58632;51.718;19.446;2023-02-22T10:00:27;99772.75;;;7.41;100.00
70971;BME280;58632;51.718;19.446;2023-02-22T10:05:26;99775.50;;;7.31;100.00
70971;BME280;58632;51.718;19.446;2023-02-22T10:07:54;99778.02;;;7.32;100.00
70971;BME280;58632;51.718;19.446;2023-02-22T10:10:23;99775.38;;;7.37;100.00
70971;BME280;58632;51.718;19.446;2023-02-22T10:23:13;99769.93;;;7.12;100.00
70971;BME280;58632;51.718;19.446;2023-02-22T10:25:42;99770.55;;;6.96;100.00
70971;BME280;58632;51.718;19.446;2023-02-22T10:28:12;99769.17;;;6.84;100.00
70971;BME280;58632;51.718;19.446;2023-02-22T10:30:43;99771.31;;;6.75;100.00
70971;BME280;58632;51.718;19.446;2023-02-22T10:33:32;99772.84;;;6.82;100.00
70971;BME280;58632;51.718;19.446;2023-02-22T10:35:59;99772.90;;;6.95;100.00
70971;BME280;58632;51.718;19.446;2023-02-22T10:38:26;99773.81;;;7.03;100.00
70971;BME280;58632;51.718;19.446;2023-02-22T10:41:02;99772.59;;;7.07;100.00
70971;BME280;58632;51.718;19.446;2023-02-22T10:43:29;99774.25;;;7.21;100.00
70971;BME280;58632;51.718;19.446;2023-02-22T10:45:59;99769.55;;;7.28;100.00
70971;BME280;58632;51.718;19.446;2023-02-22T10:48:27;99768.38;;;7.33;100.00
70971;BME280;58632;51.718;19.446;2023-02-22T10:50:57;99765.84;;;7.49;100.00
70971;BME280;58632;51.718;19.446;2023-02-22T10:53:23;99764.88;;;7.62;100.00
70971;BME280;58632;51.718;19.446;2023-02-22T10:56:06;99766.02;;;7.69;100.00
70971;BME280;58632;51.718;19.446;2023-02-22T10:59:06;99765.79;;;7.69;100.00
70971;BME280;58632;51.718;19.446;2023-02-22T11:01:34;99768.34;;;7.66;100.00
70971;BME280;58632;51.718;19.446;2023-02-22T11:04:09;99769.53;;;7.60;100.00
70971;BME280;58632;51.718;19.446;2023-02-22T11:06:36;99769.86;;;7.61;100.00
70971;BME280;58632;51.718;19.446;2023-02-22T11:09:06;99770.14;;;7.58;100.00
70971;BME280;58632;51.718;19.446;2023-02-22T11:11:34;99774.81;;;7.59;100.00
70971;BME280;58632;51.718;19.446;2023-02-22T11:14:00;99772.98;;;7.62;100.00
70971;BME280;58632;51.718;19.446;2023-02-22T11:18:59;99766.07;;;7.68;98.96
70971;BME280;58632;51.718;19.446;2023-02-22T11:21:25;99767.72;;;7.64;98.82
70971;BME280;58632;51.718;19.446;2023-02-22T11:23:59;99766.19;;;7.68;99.02
70971;BME280;58632;51.718;19.446;2023-02-22T11:26:25;99764.11;;;7.68;97.62
70971;BME280;58632;51.718;19.446;2023-02-22T11:28:51;99765.77;;;7.70;98.93
70971;BME280;58632;51.718;19.446;2023-02-22T11:31:24;99763.36;;;7.76;97.17
70971;BME280;58632;51.718;19.446;2023-02-22T11:33:54;99763.74;;;7.81;99.10
70971;BME280;58632;51.718;19.446;2023-02-22T11:36:28;99764.48;;;7.87;96.00
70971;BME280;58632;51.718;19.446;2023-02-22T11:38:55;99767.90;;;7.80;90.74
70971;BME280;58632;51.718;19.446;2023-02-22T11:41:28;99768.17;;;7.75;92.28
70971;BME280;58632;51.718;19.446;2023-02-22T11:43:54;99767.64;;;7.79;94.04
70971;BME280;58632;51.718;19.446;2023-02-22T11:46:35;99767.39;;;7.86;94.76
70971;BME280;58632;51.718;19.446;2023-02-22T11:49:02;99764.58;;;7.96;94.78
70971;BME280;58632;51.718;19.446;2023-02-22T11:59:07;99760.35;;;8.25;96.31
70971;BME280;58632;51.718;19.446;2023-02-22T12:01:55;99765.63;;;8.25;96.30
70971;BME280;58632;51.718;19.446;2023-02-22T12:09:49;99764.16;;;8.00;92.88
70971;BME280;58632;51.718;19.446;2023-02-22T12:20:01;99770.24;;;7.58;98.29
70971;BME280;58632;51.718;19.446;2023-02-22T12:22:32;99765.88;;;7.50;95.03
70971;BME280;58632;51.718;19.446;2023-02-22T12:27:30;99770.20;;;7.34;94.12
70971;BME280;58632;51.718;19.446;2023-02-22T12:30:03;99771.71;;;7.27;96.47
70971;BME280;58632;51.718;19.446;2023-02-22T12:32:40;99773.20;;;7.16;93.92
70971;BME280;58632;51.718;19.446;2023-02-22T12:35:11;99771.48;;;7.03;94.93
70971;BME280;58632;51.718;19.446;2023-02-22T12:37:45;99773.98;;;6.93;94.81
70971;BME280;58632;51.718;19.446;2023-02-22T12:47:55;99776.04;;;6.97;99.37
70971;BME280;58632;51.718;19.446;2023-02-22T12:50:22;99778.23;;;7.02;97.89
70971;BME280;58632;51.718;19.446;2023-02-22T12:53:02;99777.50;;;7.13;99.39
70971;BME280;58632;51.718;19.446;2023-02-22T12:55:32;99780.58;;;7.27;99.99
70971;BME280;58632;51.718;19.446;2023-02-22T13:00:38;99783.58;;;7.38;96.62
70971;BME280;58632;51.718;19.446;2023-02-22T13:05:56;99787.19;;;7.49;99.25
70971;BME280;58632;51.718;19.446;2023-02-22T13:08:31;99788.09;;;7.54;98.13
70971;BME280;58632;51.718;19.446;2023-02-22T13:11:10;99783.44;;;7.55;96.00
70971;BME280;58632;51.718;19.446;2023-02-22T13:13:55;99785.34;;;7.52;91.84
70971;BME280;58632;51.718;19.446;2023-02-22T13:19:35;99783.66;;;7.54;91.16
70971;BME280;58632;51.718;19.446;2023-02-22T13:24:25;99784.45;;;7.56;91.39
70971;BME280;58632;51.718;19.446;2023-02-22T13:26:56;99785.91;;;7.53;92.85
70971;BME280;58632;51.718;19.446;2023-02-22T13:29:26;99786.80;;;7.48;91.29
70971;BME280;58632;51.718;19.446;2023-02-22T13:42:10;99783.07;;;6.96;93.03
70971;BME280;58632;51.718;19.446;2023-02-22T13:49:46;99782.59;;;6.82;93.05
70971;BME280;58632;51.718;19.446;2023-02-22T13:52:15;99783.05;;;6.84;95.23
70971;BME280;58632;51.718;19.446;2023-02-22T13:54:52;99781.39;;;6.89;94.35
70971;BME280;58632;51.718;19.446;2023-02-22T13:57:23;99781.77;;;6.93;93.02
70971;BME280;58632;51.718;19.446;2023-02-22T14:07:59;99788.81;;;7.04;92.78
70971;BME280;58632;51.718;19.446;2023-02-22T14:10:43;99788.61;;;7.07;92.99
70971;BME280;58632;51.718;19.446;2023-02-22T14:13:10;99786.98;;;7.03;90.72
70971;BME280;58632;51.718;19.446;2023-02-22T14:15:36;99789.51;;;6.96;89.62
70971;BME280;58632;51.718;19.446;2023-02-22T14:18:21;99786.13;;;6.86;90.28
70971;BME280;58632;51.718;19.446;2023-02-22T14:20:47;99785.31;;;6.82;88.45
70971;BME280;58632;51.718;19.446;2023-02-22T14:23:38;99785.57;;;6.69;88.73
70971;BME280;58632;51.718;19.446;2023-02-22T14:28:55;99786.24;;;6.49;92.18
70971;BME280;58632;51.718;19.446;2023-02-22T14:31:26;99790.08;;;6.32;95.11
70971;BME280;58632;51.718;19.446;2023-02-22T14:36:19;99789.89;;;6.02;97.82
70971;BME280;58632;51.718;19.446;2023-02-22T14:38:46;99790.14;;;5.88;98.76
70971;BME280;58632;51.718;19.446;2023-02-22T14:41:13;99787.53;;;5.78;99.86
70971;BME280;58632;51.718;19.446;2023-02-22T14:43:41;99792.48;;;5.69;100.00
70971;BME280;58632;51.718;19.446;2023-02-22T14:46:07;99790.95;;;5.64;100.00
70971;BME280;58632;51.718;19.446;2023-02-22T14:48:36;99791.13;;;5.59;100.00
70971;BME280;58632;51.718;19.446;2023-02-22T14:51:18;99794.38;;;5.49;100.00
70971;BME280;58632;51.718;19.446;2023-02-22T15:01:35;99801.15;;;5.20;100.00